sensor_id;sensor_type;location;lat;lon;timestamp;pressure;altitude;pressure_sealevel;temperature;humidity
9523;BME280;63165;43.016;25.784;2023-04-21T00:01:04;99594.34;;;12.48;100.00
9523;BME280;63165;43.016;25.784;2023-04-21T00:03:33;99589.03;;;12.49;100.00
9523;BME280;63165;43.016;25.784;2023-04-21T00:06:05;99589.91;;;12.50;100.00
9523;BME280;63165;43.016;25.784;2023-04-21T00:08:32;99579.31;;;12.53;100.00
9523;BME280;63165;43.016;25.784;2023-04-21T00:11:02;99586.28;;;12.54;100.00
9523;BME280;63165;43.016;25.784;2023-04-21T00:13:29;99590.81;;;12.49;100.00
9523;BME280;63165;43.016;25.784;2023-04-21T00:15:57;99585.53;;;12.50;100.00
9523;BME280;63165;43.016;25.784;2023-04-21T00:18:24;99588.31;;;12.46;100.00
9523;BME280;63165;43.016;25.784;2023-04-21T00:20:52;99580.66;;;12.38;100.00
9523;BME280;63165;43.016;25.784;2023-04-21T00:23:21;99584.06;;;12.40;100.00
9523;BME280;63165;43.016;25.784;2023-04-21T00:25:48;99594.50;;;12.43;100.00
9523;BME280;63165;43.016;25.784;2023-04-21T00:28:16;99584.84;;;12.43;100.00
9523;BME280;63165;43.016;25.784;2023-04-21T00:30:44;99583.19;;;12.41;100.00
9523;BME280;63165;43.016;25.784;2023-04-21T00:33:11;99567.50;;;12.39;100.00
9523;BME280;63165;43.016;25.784;2023-04-21T00:35:38;99560.59;;;12.37;100.00
9523;BME280;63165;43.016;25.784;2023-04-21T00:38:06;99570.28;;;12.35;100.00
9523;BME280;63165;43.016;25.784;2023-04-21T00:40:35;99555.53;;;12.31;100.00
9523;BME280;63165;43.016;25.784;2023-04-21T00:43:05;99566.84;;;12.33;100.00
9523;BME280;63165;43.016;25.784;2023-04-21T00:45:32;99566.03;;;12.31;100.00
9523;BME280;63165;43.016;25.784;2023-04-21T00:48:00;99552.09;;;12.29;100.00
9523;BME280;63165;43.016;25.784;2023-04-21T00:50:27;99554.72;;;12.29;100.00
9523;BME280;63165;43.016;25.784;2023-04-21T00:52:55;99551.34;;;12.25;100.00
9523;BME280;63165;43.016;25.784;2023-04-21T00:55:23;99543.66;;;12.19;100.00
9523;BME280;63165;43.016;25.784;2023-04-21T00:57:52;99547.03;;;12.22;100.00
9523;BME280;63165;43.016;25.784;2023-04-21T01:00:21;99547.03;;;12.22;100.00
9523;BME280;63165;43.016;25.784;2023-04-21T01:02:48;99547.09;;;12.21;100.00
9523;BME280;63165;43.016;25.784;2023-04-21T01:05:16;99545.34;;;12.21;100.00
9523;BME280;63165;43.016;25.784;2023-04-21T01:07:44;99546.16;;;12.23;100.00
9523;BME280;63165;43.016;25.784;2023-04-21T01:10:12;99543.56;;;12.22;100.00
9523;BME280;63165;43.016;25.784;2023-04-21T01:12:43;99535.78;;;12.19;100.00
9523;BME280;63165;43.016;25.784;2023-04-21T01:15:13;99541.00;;;12.20;100.00
9523;BME280;63165;43.016;25.784;2023-04-21T01:17:41;99541.03;;;12.19;100.00
9523;BME280;63165;43.016;25.784;2023-04-21T01:20:10;99534.34;;;12.10;100.00
9523;BME280;63165;43.016;25.784;2023-04-21T01:22:41;99534.34;;;12.10;100.00
9523;BME280;63165;43.016;25.784;2023-04-21T01:25:09;99537.69;;;12.14;100.00
9523;BME280;63165;43.016;25.784;2023-04-21T01:27:36;99535.81;;;12.17;100.00
9523;BME280;63165;43.016;25.784;2023-04-21T01:30:04;99536.72;;;12.18;100.00
9523;BME280;63165;43.016;25.784;2023-04-21T01:32:32;99534.09;;;12.18;100.00
9523;BME280;63165;43.016;25.784;2023-04-21T01:34:59;99522.78;;;12.16;100.00
9523;BME280;63165;43.016;25.784;2023-04-21T01:37:29;99535.91;;;12.16;100.00
9523;BME280;63165;43.016;25.784;2023-04-21T01:40:00;99528.88;;;12.16;100.00
9523;BME280;63165;43.016;25.784;2023-04-21T01:42:30;99526.34;;;12.13;100.00
9523;BME280;63165;43.016;25.784;2023-04-21T01:44:58;99531.56;;;12.15;100.00
9523;BME280;63165;43.016;25.784;2023-04-21T01:47:25;99528.41;;;12.03;100.00
9523;BME280;63165;43.016;25.784;2023-04-21T01:49:52;99527.44;;;12.06;100.00
9523;BME280;63165;43.016;25.784;2023-04-21T01:52:20;99535.22;;;12.09;100.00
9523;BME280;63165;43.016;25.784;2023-04-21T01:54:47;99539.66;;;12.07;100.00
9523;BME280;63165;43.016;25.784;2023-04-21T01:57:16;99530.94;;;12.07;100.00
9523;BME280;63165;43.016;25.784;2023-04-21T01:59:44;99521.38;;;12.04;100.00
9523;BME280;63165;43.016;25.784;2023-04-21T02:02:11;99523.88;;;12.09;100.00
9523;BME280;63165;43.016;25.784;2023-04-21T02:04:38;99522.13;;;12.09;100.00
9523;BME280;63165;43.016;25.784;2023-04-21T02:07:06;99521.22;;;12.10;100.00
9523;BME280;63165;43.016;25.784;2023-04-21T02:09:33;99518.59;;;12.10;100.00
9523;BME280;63165;43.016;25.784;2023-04-21T02:12:01;99521.22;;;12.10;100.00
9523;BME280;63165;43.016;25.784;2023-04-21T02:14:29;99512.47;;;12.10;100.00
9523;BME280;63165;43.016;25.784;2023-04-21T02:16:57;99511.63;;;12.09;100.00
9523;BME280;63165;43.016;25.784;2023-04-21T02:19:24;99510.22;;;11.99;100.00
9523;BME280;63165;43.016;25.784;2023-04-21T02:21:52;99502.22;;;12.02;100.00
9523;BME280;63165;43.016;25.784;2023-04-21T02:24:19;99503.25;;;11.98;100.00
9523;BME280;63165;43.016;25.784;2023-04-21T02:26:46;99499.72;;;11.99;100.00
9523;BME280;63165;43.016;25.784;2023-04-21T02:29:14;99502.38;;;11.97;100.00
9523;BME280;63165;43.016;25.784;2023-04-21T02:31:43;99498.00;;;11.98;100.00
9523;BME280;63165;43.016;25.784;2023-04-21T02:34:10;99505.66;;;12.04;100.00
9523;BME280;63165;43.016;25.784;2023-04-21T02:36:37;99507.38;;;12.05;100.00
9523;BME280;63165;43.016;25.784;2023-04-21T02:39:04;99498.03;;;11.96;100.00
9523;BME280;63165;43.016;25.784;2023-04-21T02:41:32;99500.38;;;12.06;100.00
9523;BME280;63165;43.016;25.784;2023-04-21T02:43:59;99503.00;;;12.06;100.00
9523;BME280;63165;43.016;25.784;2023-04-21T02:46:26;99495.38;;;11.98;100.00
9523;BME280;63165;43.016;25.784;2023-04-21T02:48:55;99501.22;;;12.06;100.00
9523;BME280;63165;43.016;25.784;2023-04-21T02:51:22;99506.47;;;12.06;100.00
9523;BME280;63165;43.016;25.784;2023-04-21T02:53:50;99507.38;;;12.05;100.00
9523;BME280;63165;43.016;25.784;2023-04-21T02:56:17;99499.41;;;12.08;100.00
9523;BME280;63165;43.016;25.784;2023-04-21T02:58:44;99510.06;;;12.03;100.00
9523;BME280;63165;43.016;25.784;2023-04-21T03:01:12;99500.25;;;12.10;100.00
9523;BME280;63165;43.016;25.784;2023-04-21T03:03:39;99495.97;;;12.06;100.00
9523;BME280;63165;43.016;25.784;2023-04-21T03:06:08;99494.25;;;12.07;100.00
9523;BME280;63165;43.016;25.784;2023-04-21T03:08:35;99496.09;;;12.03;100.00
9523;BME280;63165;43.016;25.784;2023-04-21T03:11:02;99491.03;;;11.97;100.00
9523;BME280;63165;43.016;25.784;2023-04-21T03:13:30;99494.53;;;11.97;100.00
9523;BME280;63165;43.016;25.784;2023-04-21T03:15:57;99493.59;;;11.98;100.00
9523;BME280;63165;43.016;25.784;2023-04-21T03:18:24;99498.00;;;11.98;100.00
9523;BME280;63165;43.016;25.784;2023-04-21T03:20:58;99500.56;;;11.99;100.00
9523;BME280;63165;43.016;25.784;2023-04-21T03:23:27;99504.03;;;12.00;100.00
9523;BME280;63165;43.016;25.784;2023-04-21T03:25:54;99501.50;;;11.97;100.00
9523;BME280;63165;43.016;25.784;2023-04-21T03:28:21;99504.19;;;11.95;100.00
9523;BME280;63165;43.016;25.784;2023-04-21T03:30:49;99507.72;;;11.94;100.00
9523;BME280;63165;43.016;25.784;2023-04-21T03:33:16;99519.00;;;11.96;100.00
9523;BME280;63165;43.016;25.784;2023-04-21T03:35:43;99486.09;;;11.86;100.00
9523;BME280;63165;43.016;25.784;2023-04-21T03:38:10;99506.72;;;11.98;100.00
9523;BME280;63165;43.016;25.784;2023-04-21T03:40:39;99514.69;;;11.95;100.00
9523;BME280;63165;43.016;25.784;2023-04-21T03:43:06;99511.06;;;11.99;100.00
9523;BME280;63165;43.016;25.784;2023-04-21T03:45:34;99527.59;;;12.01;100.00
9523;BME280;63165;43.016;25.784;2023-04-21T03:48:01;99528.50;;;12.00;100.00
9523;BME280;63165;43.016;25.784;2023-04-21T03:50:29;99524.06;;;12.02;100.00
9523;BME280;63165;43.016;25.784;2023-04-21T03:52:56;99527.50;;;12.04;100.00
9523;BME280;63165;43.016;25.784;2023-04-21T03:55:24;99529.25;;;12.04;100.00
9523;BME280;63165;43.016;25.784;2023-04-21T03:57:53;99528.41;;;12.03;100.00
9523;BME280;63165;43.016;25.784;2023-04-21T04:00:20;99523.97;;;12.06;100.00
9523;BME280;63165;43.016;25.784;2023-04-21T04:02:47;99526.47;;;12.10;100.00
9523;BME280;63165;43.016;25.784;2023-04-21T04:05:14;99531.75;;;12.09;100.00
9523;BME280;63165;43.016;25.784;2023-04-21T04:07:41;99521.53;;;11.99;100.00
9523;BME280;63165;43.016;25.784;2023-04-21T04:10:09;99539.69;;;12.06;100.00
9523;BME280;63165;43.016;25.784;2023-04-21T04:12:36;99538.75;;;12.08;100.00
9523;BME280;63165;43.016;25.784;2023-04-21T04:15:06;99550.09;;;12.09;100.00
9523;BME280;63165;43.016;25.784;2023-04-21T04:17:34;99552.81;;;12.06;100.00
9523;BME280;63165;43.016;25.784;2023-04-21T04:20:02;99555.50;;;12.02;100.00
9523;BME280;63165;43.016;25.784;2023-04-21T04:22:30;99552.97;;;12.01;100.00
9523;BME280;63165;43.016;25.784;2023-04-21T04:24:58;99557.28;;;12.02;100.00
9523;BME280;63165;43.016;25.784;2023-04-21T04:27:26;99552.16;;;11.99;100.00
9523;BME280;63165;43.016;25.784;2023-04-21T04:29:54;99562.44;;;12.05;100.00
9523;BME280;63165;43.016;25.784;2023-04-21T04:32:23;99569.31;;;12.09;100.00
9523;BME280;63165;43.016;25.784;2023-04-21T04:34:52;99571.03;;;12.10;100.00
9523;BME280;63165;43.016;25.784;2023-04-21T04:37:20;99569.41;;;12.06;100.00
9523;BME280;63165;43.016;25.784;2023-04-21T04:39:47;99567.78;;;12.02;100.00
9523;BME280;63165;43.016;25.784;2023-04-21T04:42:15;99562.41;;;12.07;100.00
9523;BME280;63165;43.016;25.784;2023-04-21T04:44:42;99568.41;;;12.10;100.00
9523;BME280;63165;43.016;25.784;2023-04-21T04:47:09;99554.31;;;12.14;100.00
9523;BME280;63165;43.016;25.784;2023-04-21T04:49:38;99561.97;;;12.20;100.00
9523;BME280;63165;43.016;25.784;2023-04-21T04:52:05;99565.28;;;12.27;100.00
9523;BME280;63165;43.016;25.784;2023-04-21T04:54:33;99565.28;;;12.27;100.00
9523;BME280;63165;43.016;25.784;2023-04-21T04:57:00;99565.88;;;12.35;100.00
9523;BME280;63165;43.016;25.784;2023-04-21T04:59:29;99555.22;;;12.40;100.00
9523;BME280;63165;43.016;25.784;2023-04-21T05:01:56;99564.75;;;12.44;100.00
9523;BME280;63165;43.016;25.784;2023-04-21T05:04:23;99560.03;;;12.54;100.00
9523;BME280;63165;43.016;25.784;2023-04-21T05:06:52;99573.81;;;12.60;100.00
9523;BME280;63165;43.016;25.784;2023-04-21T05:09:19;99569.06;;;12.72;100.00
9523;BME280;63165;43.016;25.784;2023-04-21T05:11:46;99570.56;;;12.79;100.00
9523;BME280;63165;43.016;25.784;2023-04-21T05:14:13;99579.34;;;12.79;100.00
9523;BME280;63165;43.016;25.784;2023-04-21T05:16:42;99572.72;;;12.94;100.00
9523;BME280;63165;43.016;25.784;2023-04-21T05:19:09;99569.81;;;13.02;100.00
9523;BME280;63165;43.016;25.784;2023-04-21T05:21:36;99567.53;;;13.16;100.00
9523;BME280;63165;43.016;25.784;2023-04-21T05:24:05;99572.38;;;13.29;100.00
9523;BME280;63165;43.016;25.784;2023-04-21T05:26:32;99576.38;;;13.40;100.00
9523;BME280;63165;43.016;25.784;2023-04-21T05:28:59;99575.13;;;13.51;100.00
9523;BME280;63165;43.016;25.784;2023-04-21T05:31:27;99580.00;;;13.62;100.00
9523;BME280;63165;43.016;25.784;2023-04-21T05:33:55;99573.72;;;13.66;100.00
9523;BME280;63165;43.016;25.784;2023-04-21T05:36:22;99569.19;;;13.69;100.00
9523;BME280;63165;43.016;25.784;2023-04-21T05:38:50;99572.72;;;13.68;100.00
9523;BME280;63165;43.016;25.784;2023-04-21T05:41:18;99575.38;;;13.68;100.00
9523;BME280;63165;43.016;25.784;2023-04-21T05:43:47;99587.97;;;13.82;100.00
9523;BME280;63165;43.016;25.784;2023-04-21T05:46:14;99585.25;;;13.85;100.00
9523;BME280;63165;43.016;25.784;2023-04-21T05:48:41;99583.31;;;13.90;100.00
9523;BME280;63165;43.016;25.784;2023-04-21T05:51:09;99577.81;;;13.96;100.00
9523;BME280;63165;43.016;25.784;2023-04-21T05:53:36;99574.88;;;14.04;100.00
9523;BME280;63165;43.016;25.784;2023-04-21T05:56:04;99581.56;;;14.13;100.00
9523;BME280;63165;43.016;25.784;2023-04-21T05:58:34;99582.31;;;14.16;100.00
9523;BME280;63165;43.016;25.784;2023-04-21T06:01:01;99586.53;;;14.21;100.00
9523;BME280;63165;43.016;25.784;2023-04-21T06:03:30;99567.31;;;14.18;100.00
9523;BME280;63165;43.016;25.784;2023-04-21T06:05:58;99580.06;;;14.29;100.00
9523;BME280;63165;43.016;25.784;2023-04-21T06:08:25;99584.97;;;14.39;100.00
9523;BME280;63165;43.016;25.784;2023-04-21T06:10:53;99582.06;;;14.45;100.00
9523;BME280;63165;43.016;25.784;2023-04-21T06:13:20;99581.75;;;14.52;100.00
9523;BME280;63165;43.016;25.784;2023-04-21T06:15:49;99571.75;;;14.62;100.00
9523;BME280;63165;43.016;25.784;2023-04-21T06:18:16;99574.13;;;14.68;100.00
9523;BME280;63165;43.016;25.784;2023-04-21T06:20:49;99581.19;;;14.88;100.00
9523;BME280;63165;43.016;25.784;2023-04-21T06:23:16;99586.88;;;15.00;99.80
9523;BME280;63165;43.016;25.784;2023-04-21T06:25:43;99579.50;;;15.08;98.53
9523;BME280;63165;43.016;25.784;2023-04-21T06:28:10;99583.31;;;15.21;100.00
9523;BME280;63165;43.016;25.784;2023-04-21T06:30:38;99587.88;;;15.38;99.74
9523;BME280;63165;43.016;25.784;2023-04-21T06:33:07;99591.31;;;15.59;99.44
9523;BME280;63165;43.016;25.784;2023-04-21T06:35:34;99596.19;;;15.68;98.01
9523;BME280;63165;43.016;25.784;2023-04-21T06:38:01;99591.72;;;15.89;97.31
9523;BME280;63165;43.016;25.784;2023-04-21T06:40:28;99595.44;;;16.04;96.63
9523;BME280;63165;43.016;25.784;2023-04-21T06:42:56;99595.59;;;16.20;95.10
9523;BME280;63165;43.016;25.784;2023-04-21T06:45:23;99594.03;;;16.35;94.70
9523;BME280;63165;43.016;25.784;2023-04-21T06:47:51;99602.13;;;16.49;94.44
9523;BME280;63165;43.016;25.784;2023-04-21T06:50:19;99581.88;;;16.50;92.18
9523;BME280;63165;43.016;25.784;2023-04-21T06:52:47;99601.94;;;16.72;89.46
9523;BME280;63165;43.016;25.784;2023-04-21T06:55:14;99605.69;;;16.85;88.15
9523;BME280;63165;43.016;25.784;2023-04-21T06:57:42;99606.25;;;16.92;85.65
9523;BME280;63165;43.016;25.784;2023-04-21T07:00:10;99612.00;;;17.00;84.09
9523;BME280;63165;43.016;25.784;2023-04-21T07:02:37;99618.88;;;17.04;82.66
9523;BME280;63165;43.016;25.784;2023-04-21T07:05:06;99617.78;;;17.08;81.52
9523;BME280;63165;43.016;25.784;2023-04-21T07:07:35;99621.34;;;17.07;81.28
9523;BME280;63165;43.016;25.784;2023-04-21T07:10:03;99615.34;;;17.03;79.54
9523;BME280;63165;43.016;25.784;2023-04-21T07:12:30;99621.09;;;16.94;79.92
9523;BME280;63165;43.016;25.784;2023-04-21T07:14:57;99625.41;;;16.97;80.83
9523;BME280;63165;43.016;25.784;2023-04-21T07:17:24;99614.66;;;17.00;81.06
9523;BME280;63165;43.016;25.784;2023-04-21T07:19:52;99618.78;;;17.05;81.84
9523;BME280;63165;43.016;25.784;2023-04-21T07:22:19;99624.06;;;17.05;81.62
9523;BME280;63165;43.016;25.784;2023-04-21T07:24:48;99627.47;;;17.07;81.64
9523;BME280;63165;43.016;25.784;2023-04-21T07:27:15;99622.13;;;17.09;81.84
9523;BME280;63165;43.016;25.784;2023-04-21T07:29:43;99626.41;;;17.12;80.58
9523;BME280;63165;43.016;25.784;2023-04-21T07:32:11;99631.00;;;17.08;79.46
9523;BME280;63165;43.016;25.784;2023-04-21T07:34:38;99631.28;;;17.02;78.95
9523;BME280;63165;43.016;25.784;2023-04-21T07:37:06;99619.22;;;16.96;78.88
9523;BME280;63165;43.016;25.784;2023-04-21T07:39:33;99632.63;;;16.93;78.88
9523;BME280;63165;43.016;25.784;2023-04-21T07:42:02;99624.41;;;16.80;79.00
9523;BME280;63165;43.016;25.784;2023-04-21T07:44:32;99636.84;;;16.78;78.85
9523;BME280;63165;43.016;25.784;2023-04-21T07:46:59;99638.84;;;16.73;78.64
9523;BME280;63165;43.016;25.784;2023-04-21T07:49:27;99643.41;;;16.69;78.61
9523;BME280;63165;43.016;25.784;2023-04-21T07:51:54;99636.94;;;16.58;78.51
9523;BME280;63165;43.016;25.784;2023-04-21T07:54:21;99651.66;;;16.63;78.46
9523;BME280;63165;43.016;25.784;2023-04-21T07:56:48;99642.59;;;16.50;79.71
9523;BME280;63165;43.016;25.784;2023-04-21T07:59:17;99647.81;;;16.52;80.67
9523;BME280;63165;43.016;25.784;2023-04-21T08:01:44;99657.31;;;16.56;80.25
9523;BME280;63165;43.016;25.784;2023-04-21T08:04:11;99642.66;;;16.48;80.04
9523;BME280;63165;43.016;25.784;2023-04-21T08:06:39;99652.03;;;16.56;79.78
9523;BME280;63165;43.016;25.784;2023-04-21T08:09:06;99650.28;;;16.55;80.44
9523;BME280;63165;43.016;25.784;2023-04-21T08:11:33;99657.31;;;16.56;80.50
9523;BME280;63165;43.016;25.784;2023-04-21T08:14:00;99657.78;;;16.64;80.76
9523;BME280;63165;43.016;25.784;2023-04-21T08:16:30;99668.91;;;16.71;80.51
9523;BME280;63165;43.016;25.784;2023-04-21T08:18:57;99644.50;;;16.65;79.75
9523;BME280;63165;43.016;25.784;2023-04-21T08:21:24;99662.22;;;16.82;79.91
9523;BME280;63165;43.016;25.784;2023-04-21T08:23:51;99660.84;;;16.93;79.46
9523;BME280;63165;43.016;25.784;2023-04-21T08:26:21;99664.03;;;16.99;79.57
9523;BME280;63165;43.016;25.784;2023-04-21T08:28:49;99653.78;;;17.11;79.08
9523;BME280;63165;43.016;25.784;2023-04-21T08:31:17;99665.59;;;17.21;78.16
9523;BME280;63165;43.016;25.784;2023-04-21T08:33:46;99660.91;;;17.26;77.05
9523;BME280;63165;43.016;25.784;2023-04-21T08:36:14;99677.97;;;17.38;76.93
9523;BME280;63165;43.016;25.784;2023-04-21T08:38:42;99672.38;;;17.44;76.85
9523;BME280;63165;43.016;25.784;2023-04-21T08:41:09;99677.72;;;17.42;76.63
9523;BME280;63165;43.016;25.784;2023-04-21T08:43:36;99675.22;;;17.39;76.06
9523;BME280;63165;43.016;25.784;2023-04-21T08:46:10;99670.66;;;17.25;75.07
9523;BME280;63165;43.016;25.784;2023-04-21T08:48:38;99679.09;;;17.15;74.90
9523;BME280;63165;43.016;25.784;2023-04-21T08:51:08;99651.81;;;16.97;74.78
9523;BME280;63165;43.016;25.784;2023-04-21T08:53:36;99674.13;;;17.08;75.91
9523;BME280;63165;43.016;25.784;2023-04-21T08:56:03;99674.97;;;17.09;76.10
9523;BME280;63165;43.016;25.784;2023-04-21T08:58:31;99683.69;;;17.11;76.67
9523;BME280;63165;43.016;25.784;2023-04-21T09:00:58;99684.25;;;17.18;77.30
9523;BME280;63165;43.016;25.784;2023-04-21T09:03:26;99683.34;;;17.19;77.47
9523;BME280;63165;43.016;25.784;2023-04-21T09:05:57;99677.19;;;17.18;77.67
9523;BME280;63165;43.016;25.784;2023-04-21T09:08:26;99675.22;;;17.22;77.44
9523;BME280;63165;43.016;25.784;2023-04-21T09:10:55;99670.97;;;17.19;77.32
9523;BME280;63165;43.016;25.784;2023-04-21T09:13:29;99689.31;;;17.22;77.56
9523;BME280;63165;43.016;25.784;2023-04-21T09:15:56;99676.25;;;17.19;77.29
9523;BME280;63165;43.016;25.784;2023-04-21T09:18:25;99676.31;;;17.18;78.43
9523;BME280;63165;43.016;25.784;2023-04-21T09:21:05;99667.38;;;17.20;78.17
9523;BME280;63165;43.016;25.784;2023-04-21T09:23:40;99664.44;;;17.26;78.35
9523;BME280;63165;43.016;25.784;2023-04-21T09:26:08;99669.16;;;17.37;77.45
9523;BME280;63165;43.016;25.784;2023-04-21T09:28:36;99674.22;;;17.42;76.78
9523;BME280;63165;43.016;25.784;2023-04-21T09:31:12;99669.94;;;17.39;76.95
9523;BME280;63165;43.016;25.784;2023-04-21T09:33:43;99667.91;;;17.44;76.99
9523;BME280;63165;43.016;25.784;2023-04-21T09:36:17;99675.94;;;17.43;76.33
9523;BME280;63165;43.016;25.784;2023-04-21T09:38:49;99676.03;;;17.41;75.95
9523;BME280;63165;43.016;25.784;2023-04-21T09:41:16;99668.72;;;17.29;75.71
9523;BME280;63165;43.016;25.784;2023-04-21T09:43:44;99671.81;;;17.20;75.92
9523;BME280;63165;43.016;25.784;2023-04-21T09:46:11;99672.50;;;17.06;76.06
9523;BME280;63165;43.016;25.784;2023-04-21T09:48:42;99677.56;;;17.11;76.75
9523;BME280;63165;43.016;25.784;2023-04-21T09:51:10;99678.50;;;17.10;76.62
9523;BME280;63165;43.016;25.784;2023-04-21T09:53:39;99676.06;;;17.05;76.94
9523;BME280;63165;43.016;25.784;2023-04-21T09:56:11;99670.72;;;17.06;77.48
9523;BME280;63165;43.016;25.784;2023-04-21T09:58:43;99686.25;;;17.13;77.27
9523;BME280;63165;43.016;25.784;2023-04-21T10:01:13;99680.19;;;17.11;77.46
9523;BME280;63165;43.016;25.784;2023-04-21T10:03:42;99665.97;;;16.96;78.60
9523;BME280;63165;43.016;25.784;2023-04-21T10:06:11;99688.97;;;16.94;79.50
9523;BME280;63165;43.016;25.784;2023-04-21T10:08:38;99677.03;;;16.85;79.90
9523;BME280;63165;43.016;25.784;2023-04-21T10:11:08;99675.63;;;16.78;80.22
9523;BME280;63165;43.016;25.784;2023-04-21T10:13:36;99681.19;;;16.72;81.35
9523;BME280;63165;43.016;25.784;2023-04-21T10:16:05;99673.56;;;16.65;81.86
9523;BME280;63165;43.016;25.784;2023-04-21T10:18:35;99671.69;;;16.67;83.35
9523;BME280;63165;43.016;25.784;2023-04-21T10:21:05;99671.16;;;16.61;83.66
9523;BME280;63165;43.016;25.784;2023-04-21T10:23:37;99683.41;;;16.62;84.50
9523;BME280;63165;43.016;25.784;2023-04-21T10:26:10;99686.81;;;16.64;84.73
9523;BME280;63165;43.016;25.784;2023-04-21T10:28:39;99687.91;;;16.60;84.67
9523;BME280;63165;43.016;25.784;2023-04-21T10:31:32;99680.19;;;16.55;85.18
9523;BME280;63165;43.016;25.784;2023-04-21T10:34:29;99675.84;;;16.54;85.13
9523;BME280;63165;43.016;25.784;2023-04-21T10:37:11;99675.06;;;16.52;84.65
9523;BME280;63165;43.016;25.784;2023-04-21T10:39:54;99673.41;;;16.49;83.95
9523;BME280;63165;43.016;25.784;2023-04-21T10:42:33;99678.06;;;16.44;84.14
9523;BME280;63165;43.016;25.784;2023-04-21T10:45:08;99668.38;;;16.45;84.45
9523;BME280;63165;43.016;25.784;2023-04-21T10:47:41;99659.72;;;16.41;84.11
9523;BME280;63165;43.016;25.784;2023-04-21T10:50:13;99662.94;;;16.48;84.60
9523;BME280;63165;43.016;25.784;2023-04-21T10:52:45;99666.72;;;16.42;84.91
9523;BME280;63165;43.016;25.784;2023-04-21T10:55:12;99663.44;;;16.56;84.04
9523;BME280;63165;43.016;25.784;2023-04-21T10:57:43;99669.13;;;16.66;84.31
9523;BME280;63165;43.016;25.784;2023-04-21T11:00:15;99667.13;;;16.71;84.60
9523;BME280;63165;43.016;25.784;2023-04-21T11:02:43;99663.25;;;16.78;84.00
9523;BME280;63165;43.016;25.784;2023-04-21T11:05:10;99670.91;;;16.84;83.32
9523;BME280;63165;43.016;25.784;2023-04-21T11:07:38;99660.75;;;16.94;83.13
9523;BME280;63165;43.016;25.784;2023-04-21T11:10:06;99665.38;;;17.08;82.64
9523;BME280;63165;43.016;25.784;2023-04-21T11:12:37;99656.34;;;17.12;81.77
9523;BME280;63165;43.016;25.784;2023-04-21T11:15:07;99662.00;;;17.22;81.25
9523;BME280;63165;43.016;25.784;2023-04-21T11:17:35;99662.41;;;17.32;81.76
9523;BME280;63165;43.016;25.784;2023-04-21T11:20:05;99664.28;;;17.47;81.33
9523;BME280;63165;43.016;25.784;2023-04-21T11:22:33;99672.81;;;17.52;79.86
9523;BME280;63165;43.016;25.784;2023-04-21T11:25:02;99677.72;;;17.60;78.19
9523;BME280;63165;43.016;25.784;2023-04-21T11:27:29;99671.50;;;17.61;77.03
9523;BME280;63165;43.016;25.784;2023-04-21T11:29:56;99668.44;;;17.69;76.34
9523;BME280;63165;43.016;25.784;2023-04-21T11:32:25;99661.75;;;17.79;77.41
9523;BME280;63165;43.016;25.784;2023-04-21T11:34:53;99648.34;;;17.82;76.50
9523;BME280;63165;43.016;25.784;2023-04-21T11:37:23;99648.50;;;17.96;75.84
9523;BME280;63165;43.016;25.784;2023-04-21T11:39:57;99657.06;;;18.01;74.82
9523;BME280;63165;43.016;25.784;2023-04-21T11:42:25;99659.78;;;18.16;74.81
9523;BME280;63165;43.016;25.784;2023-04-21T11:44:53;99646.25;;;18.22;74.37
9523;BME280;63165;43.016;25.784;2023-04-21T11:47:22;99646.31;;;18.36;73.77
9523;BME280;63165;43.016;25.784;2023-04-21T11:49:53;99647.78;;;18.42;73.21
9523;BME280;63165;43.016;25.784;2023-04-21T11:52:22;99649.81;;;18.53;73.41
9523;BME280;63165;43.016;25.784;2023-04-21T11:54:54;99645.53;;;18.66;73.07
9523;BME280;63165;43.016;25.784;2023-04-21T11:57:22;99636.31;;;18.73;71.82
9523;BME280;63165;43.016;25.784;2023-04-21T11:59:51;99639.66;;;18.93;71.16
9523;BME280;63165;43.016;25.784;2023-04-21T12:02:25;99639.78;;;19.06;70.13
9523;BME280;63165;43.016;25.784;2023-04-21T12:05:02;99646.44;;;19.13;69.74
9523;BME280;63165;43.016;25.784;2023-04-21T12:07:30;99632.16;;;19.15;69.59
9523;BME280;63165;43.016;25.784;2023-04-21T12:09:58;99628.59;;;19.31;69.25
9523;BME280;63165;43.016;25.784;2023-04-21T12:12:26;99618.09;;;19.44;68.17
9523;BME280;63165;43.016;25.784;2023-04-21T12:14:53;99624.28;;;19.58;67.95
9523;BME280;63165;43.016;25.784;2023-04-21T12:17:20;99626.09;;;19.72;67.48
9523;BME280;63165;43.016;25.784;2023-04-21T12:19:48;99627.81;;;19.88;67.28
9523;BME280;63165;43.016;25.784;2023-04-21T12:22:17;99602.13;;;19.88;66.61
9523;BME280;63165;43.016;25.784;2023-04-21T12:24:46;99602.69;;;19.93;66.12
9523;BME280;63165;43.016;25.784;2023-04-21T12:27:13;99619.66;;;20.05;66.76
9523;BME280;63165;43.016;25.784;2023-04-21T12:29:40;99615.00;;;20.09;65.94
9523;BME280;63165;43.016;25.784;2023-04-21T12:32:08;99622.84;;;20.25;66.04
9523;BME280;63165;43.016;25.784;2023-04-21T12:34:35;99619.44;;;20.23;64.98
9523;BME280;63165;43.016;25.784;2023-04-21T12:37:03;99617.88;;;20.33;64.65
9523;BME280;63165;43.016;25.784;2023-04-21T12:39:32;99613.50;;;20.46;64.42
9523;BME280;63165;43.016;25.784;2023-04-21T12:42:00;99604.66;;;20.60;64.40
9523;BME280;63165;43.016;25.784;2023-04-21T12:44:29;99603.00;;;20.72;63.59
9523;BME280;63165;43.016;25.784;2023-04-21T12:46:56;99608.31;;;20.72;62.35
9523;BME280;63165;43.016;25.784;2023-04-21T12:49:24;99604.94;;;20.55;61.46
9523;BME280;63165;43.016;25.784;2023-04-21T12:51:51;99608.88;;;20.35;61.37
9523;BME280;63165;43.016;25.784;2023-04-21T12:54:20;99604.56;;;20.20;61.26
9523;BME280;63165;43.016;25.784;2023-04-21T12:56:49;99621.53;;;20.17;62.23
9523;BME280;63165;43.016;25.784;2023-04-21T12:59:16;99605.41;;;20.06;62.69
9523;BME280;63165;43.016;25.784;2023-04-21T13:01:43;99624.97;;;20.05;62.41